createdAt,value
2022-09-26T00:00:55.006Z,0.00
2022-09-26T00:01:55.947Z,0.00
2022-09-26T00:02:54.946Z,0.00
2022-09-26T00:03:55.878Z,0.00
2022-09-26T00:04:55.852Z,0.00
2022-09-26T00:05:55.686Z,0.00
2022-09-26T00:06:54.865Z,0.00
2022-09-26T00:07:54.809Z,0.00
2022-09-26T00:08:54.834Z,0.00
2022-09-26T00:09:54.847Z,0.00
2022-09-26T00:10:54.812Z,0.00
2022-09-26T00:11:54.776Z,0.00
2022-09-26T00:12:54.776Z,0.00
2022-09-26T00:13:56.187Z,0.00
2022-09-26T00:14:55.588Z,0.00
2022-09-26T00:15:55.570Z,0.00
2022-09-26T00:16:54.781Z,0.00
2022-09-26T00:17:54.719Z,0.00
2022-09-26T00:18:55.515Z,0.00
2022-09-26T00:19:54.678Z,0.00
2022-09-26T00:20:54.798Z,0.00
2022-09-26T00:21:54.707Z,0.00
2022-09-26T00:22:54.803Z,0.00
2022-09-26T00:23:54.990Z,0.00
2022-09-26T00:24:54.607Z,0.00
2022-09-26T00:25:54.580Z,0.00
2022-09-26T00:26:54.721Z,0.00
2022-09-26T00:27:55.368Z,0.00
2022-09-26T00:28:55.529Z,0.00
2022-09-26T00:29:54.509Z,0.00
2022-09-26T00:30:56.024Z,0.00
2022-09-26T00:31:55.241Z,0.00
2022-09-26T00:32:55.402Z,0.00
2022-09-26T00:33:55.301Z,0.00
2022-09-26T00:34:55.201Z,0.00
2022-09-26T00:35:55.368Z,0.00
2022-09-26T00:36:55.272Z,0.00
2022-09-26T00:37:55.172Z,0.00
2022-09-26T00:38:54.369Z,0.00
2022-09-26T00:39:55.239Z,0.00
2022-09-26T00:40:55.220Z,0.00
2022-09-26T00:41:54.372Z,0.00
2022-09-26T00:42:54.356Z,0.00
2022-09-26T00:43:54.356Z,0.00
2022-09-26T00:44:54.316Z,0.00
2022-09-26T00:45:55.223Z,0.00
2022-09-26T00:46:54.272Z,0.00
2022-09-26T00:47:55.242Z,0.00
2022-09-26T00:48:55.141Z,0.00
2022-09-26T00:49:54.243Z,0.00
2022-09-26T00:50:55.206Z,0.00
2022-09-26T00:51:55.112Z,0.00
2022-09-26T00:52:54.228Z,0.00
2022-09-26T00:53:54.216Z,0.00
2022-09-26T00:54:55.076Z,0.00
2022-09-26T00:55:54.984Z,0.00
2022-09-26T00:56:54.883Z,0.00
2022-09-26T00:57:55.583Z,0.00
2022-09-26T00:58:54.146Z,0.00
2022-09-26T00:59:54.092Z,0.00
2022-09-26T01:00:54.263Z,0.00
2022-09-26T01:01:54.146Z,0.00
2022-09-26T01:02:54.828Z,0.00
2022-09-26T01:03:54.984Z,0.00
2022-09-26T01:04:54.015Z,0.00
2022-09-26T01:05:54.017Z,0.00
2022-09-26T01:06:54.959Z,0.00
2022-09-26T01:07:54.859Z,0.00
2022-09-26T01:08:55.446Z,0.00
2022-09-26T01:09:54.917Z,0.00
2022-09-26T01:10:54.827Z,0.00
2022-09-26T01:11:53.915Z,0.00
2022-09-26T01:12:53.952Z,0.00
2022-09-26T01:13:55.345Z,0.00
2022-09-26T01:14:54.696Z,0.00
2022-09-26T01:15:54.855Z,0.00
2022-09-26T01:16:54.784Z,0.00
2022-09-26T01:17:54.657Z,0.00
2022-09-26T01:18:53.865Z,0.00
2022-09-26T01:19:53.786Z,0.00
2022-09-26T01:20:53.817Z,0.00
2022-09-26T01:21:54.872Z,0.00
2022-09-26T01:22:53.784Z,0.00
2022-09-26T01:23:54.600Z,0.00
2022-09-26T01:24:55.189Z,0.00
2022-09-26T01:25:54.673Z,0.00
2022-09-26T01:26:54.574Z,0.00
2022-09-26T01:27:53.696Z,0.00
2022-09-26T01:28:54.629Z,0.00
2022-09-26T01:29:55.151Z,0.00
2022-09-26T01:30:54.485Z,0.00
2022-09-26T01:31:54.600Z,0.00
2022-09-26T01:32:53.650Z,0.00
2022-09-26T01:33:53.702Z,0.00
2022-09-26T01:34:54.589Z,0.00
2022-09-26T01:35:53.581Z,0.00
2022-09-26T01:36:53.571Z,0.00
2022-09-26T01:37:54.530Z,0.00
2022-09-26T01:38:53.551Z,0.00
2022-09-26T01:39:53.630Z,0.00
2022-09-26T01:40:53.595Z,0.00
2022-09-26T01:41:53.503Z,0.00
2022-09-26T01:42:53.491Z,0.00
2022-09-26T01:43:53.488Z,0.00
2022-09-26T01:44:54.396Z,0.00
2022-09-26T01:45:54.969Z,0.00
2022-09-26T01:46:54.181Z,0.00
2022-09-26T01:47:53.424Z,0.00
2022-09-26T01:48:53.493Z,0.00
2022-09-26T01:49:53.478Z,0.00
2022-09-26T01:50:53.394Z,0.00
2022-09-26T01:51:53.416Z,0.00
2022-09-26T01:52:53.374Z,0.00
2022-09-26T01:53:53.437Z,0.00
2022-09-26T01:54:53.352Z,0.00
2022-09-26T01:55:54.083Z,0.00
2022-09-26T01:56:54.245Z,0.00
2022-09-26T01:57:54.154Z,0.00
2022-09-26T01:58:53.298Z,0.00
2022-09-26T01:59:53.274Z,0.00
2022-09-26T02:00:53.284Z,0.00
2022-09-26T02:01:54.057Z,0.00
2022-09-26T02:02:54.183Z,0.00
2022-09-26T02:03:54.091Z,0.00
2022-09-26T02:04:53.207Z,0.00
2022-09-26T02:05:53.181Z,0.00
2022-09-26T02:06:54.055Z,0.00
2022-09-26T02:07:53.524Z,0.00
2022-09-26T02:08:54.122Z,0.00
2022-09-26T02:09:53.424Z,0.00
2022-09-26T02:10:53.108Z,0.00
2022-09-26T02:11:53.115Z,0.00
2022-09-26T02:12:53.096Z,0.00
2022-09-26T02:13:53.919Z,0.00
2022-09-26T02:14:53.067Z,0.00
2022-09-26T02:15:53.959Z,0.00
2022-09-26T02:16:53.115Z,0.00
2022-09-26T02:17:53.147Z,0.00
2022-09-26T02:18:53.054Z,0.00
2022-09-26T02:19:52.995Z,0.00
2022-09-26T02:20:53.000Z,0.00
2022-09-26T02:21:52.935Z,0.00
2022-09-26T02:22:52.940Z,0.00
2022-09-26T02:23:52.991Z,0.00
2022-09-26T02:24:52.939Z,0.00
2022-09-26T02:25:52.918Z,0.00
2022-09-26T02:26:52.907Z,0.00
2022-09-26T02:27:53.832Z,0.00
2022-09-26T02:28:53.738Z,0.00
2022-09-26T02:29:53.640Z,0.00
2022-09-26T02:30:53.801Z,0.00
2022-09-26T02:31:53.756Z,0.00
2022-09-26T02:32:52.803Z,0.00
2022-09-26T02:33:53.768Z,0.00
2022-09-26T02:34:53.678Z,0.00
2022-09-26T02:35:53.570Z,0.00
2022-09-26T02:36:53.854Z,0.00
2022-09-26T02:37:52.723Z,0.00
2022-09-26T02:38:53.540Z,0.00
2022-09-26T02:39:53.456Z,0.00
2022-09-26T02:40:52.981Z,0.00
2022-09-26T02:41:53.510Z,0.00
2022-09-26T02:42:53.670Z,0.00
2022-09-26T02:43:53.573Z,0.00
2022-09-26T02:44:53.482Z,0.00
2022-09-26T02:45:53.516Z,0.00
2022-09-26T02:46:53.543Z,0.00
2022-09-26T02:47:52.657Z,0.00
2022-09-26T02:48:53.354Z,0.00
2022-09-26T02:49:52.551Z,0.00
2022-09-26T02:50:53.425Z,0.00
2022-09-26T02:51:52.552Z,0.00
2022-09-26T02:52:52.972Z,0.00
2022-09-26T02:53:53.404Z,0.00
2022-09-26T02:54:53.058Z,0.00
2022-09-26T02:55:52.475Z,0.00
2022-09-26T02:56:53.395Z,0.00
2022-09-26T02:57:52.502Z,0.00
2022-09-26T02:58:52.486Z,0.00
2022-09-26T02:59:52.439Z,0.00
2022-09-26T03:00:53.271Z,0.00
2022-09-26T03:01:52.375Z,0.00
2022-09-26T03:02:52.634Z,0.00
2022-09-26T03:03:53.219Z,0.00
2022-09-26T03:04:52.449Z,0.00
2022-09-26T03:05:53.333Z,0.00
2022-09-26T03:06:53.157Z,0.00
2022-09-26T03:07:53.303Z,0.00
2022-09-26T03:08:53.224Z,0.00
2022-09-26T03:09:52.266Z,0.00
2022-09-26T03:10:53.028Z,0.00
2022-09-26T03:11:53.196Z,0.00
2022-09-26T03:12:53.103Z,0.00
2022-09-26T03:13:52.996Z,0.00
2022-09-26T03:14:56.686Z,0.00
2022-09-26T03:15:54.096Z,0.00
2022-09-26T03:16:53.022Z,0.00
2022-09-26T03:17:52.156Z,0.00
2022-09-26T03:18:53.025Z,0.00
2022-09-26T03:19:52.936Z,0.00
2022-09-26T03:20:52.169Z,0.00
2022-09-26T03:21:52.140Z,0.00
2022-09-26T03:22:52.908Z,0.00
2022-09-26T03:23:52.955Z,0.00
2022-09-26T03:24:52.637Z,0.00
2022-09-26T03:25:52.894Z,0.00
2022-09-26T03:26:53.163Z,0.00
2022-09-26T03:27:52.986Z,0.00
2022-09-26T03:28:52.010Z,0.00
2022-09-26T03:29:52.968Z,0.00
2022-09-26T03:30:52.900Z,0.00
2022-09-26T03:31:52.100Z,0.00
2022-09-26T03:32:52.051Z,0.00
2022-09-26T03:33:52.015Z,0.00
2022-09-26T03:34:52.778Z,0.00
2022-09-26T03:35:51.944Z,0.00
2022-09-26T03:36:52.844Z,0.00
2022-09-26T03:37:52.763Z,0.00
2022-09-26T03:38:52.271Z,0.00
2022-09-26T03:39:52.353Z,0.00
2022-09-26T03:40:52.307Z,0.00
2022-09-26T03:41:52.660Z,0.00
2022-09-26T03:42:51.843Z,0.00
2022-09-26T03:43:52.682Z,0.00
2022-09-26T03:44:51.822Z,0.00
2022-09-26T03:45:52.798Z,0.00
2022-09-26T03:46:52.650Z,0.00
2022-09-26T03:47:52.551Z,0.00
2022-09-26T03:48:52.716Z,0.00
2022-09-26T03:49:51.741Z,0.00
2022-09-26T03:50:51.703Z,0.00
2022-09-26T03:51:51.743Z,0.00
2022-09-26T03:52:52.583Z,0.00
2022-09-26T03:53:51.710Z,0.00
2022-09-26T03:54:52.644Z,0.00
2022-09-26T03:55:51.632Z,0.00
2022-09-26T03:56:51.721Z,0.00
2022-09-26T03:57:52.629Z,0.00
2022-09-26T03:58:52.513Z,0.00
2022-09-26T03:59:52.466Z,0.00
2022-09-26T04:00:52.392Z,0.00
2022-09-26T04:01:51.680Z,0.00
2022-09-26T04:02:52.401Z,0.00
2022-09-26T04:03:52.295Z,0.00
2022-09-26T04:04:52.508Z,0.00
2022-09-26T04:05:52.355Z,0.00
2022-09-26T04:06:52.273Z,0.00
2022-09-26T04:07:52.426Z,0.00
2022-09-26T04:08:51.469Z,0.00
2022-09-26T04:09:52.228Z,0.00
2022-09-26T04:10:51.448Z,0.00
2022-09-26T04:11:52.295Z,0.00
2022-09-26T04:12:52.457Z,0.00
2022-09-26T04:13:53.822Z,0.00
2022-09-26T04:14:52.276Z,0.00
2022-09-26T04:15:52.169Z,0.00
2022-09-26T04:16:52.591Z,0.00
2022-09-26T04:17:52.274Z,0.00
2022-09-26T04:18:51.675Z,0.00
2022-09-26T04:19:52.297Z,0.00
2022-09-26T04:20:51.605Z,0.00
2022-09-26T04:21:52.104Z,0.00
2022-09-26T04:22:51.258Z,0.00
2022-09-26T04:23:52.188Z,0.00
2022-09-26T04:24:52.103Z,0.00
2022-09-26T04:25:52.228Z,0.00
2022-09-26T04:26:52.161Z,0.00
2022-09-26T04:27:52.037Z,0.00
2022-09-26T04:28:51.971Z,0.00
2022-09-26T04:29:52.104Z,0.00
2022-09-26T04:30:52.014Z,0.00
2022-09-26T04:31:51.185Z,0.00
2022-09-26T04:32:51.138Z,0.00
2022-09-26T04:33:52.022Z,0.00
2022-09-26T04:34:51.878Z,0.00
2022-09-26T04:35:52.041Z,0.00
2022-09-26T04:36:51.943Z,0.00
2022-09-26T04:37:51.849Z,0.00
2022-09-26T04:38:51.086Z,0.00
2022-09-26T04:39:51.913Z,0.00
2022-09-26T04:40:51.139Z,0.00
2022-09-26T04:41:51.060Z,0.00
2022-09-26T04:42:51.881Z,0.00
2022-09-26T04:43:51.780Z,0.00
2022-09-26T04:44:51.943Z,0.00
2022-09-26T04:45:51.953Z,0.00
2022-09-26T04:46:51.752Z,0.00
2022-09-26T04:47:51.920Z,0.00
2022-09-26T04:48:51.827Z,0.00
2022-09-26T04:49:51.276Z,0.00
2022-09-26T04:50:51.915Z,0.00
2022-09-26T04:51:51.898Z,0.00
2022-09-26T04:52:51.693Z,0.00
2022-09-26T04:53:52.274Z,0.00
2022-09-26T04:54:50.793Z,0.00
2022-09-26T04:55:50.805Z,0.00
2022-09-26T04:56:51.561Z,0.00
2022-09-26T04:57:51.743Z,0.00
2022-09-26T04:58:51.640Z,0.00
2022-09-26T04:59:50.744Z,0.00
2022-09-26T05:00:51.744Z,0.00
2022-09-26T05:01:51.648Z,5.62
2022-09-26T05:02:51.494Z,5.62
2022-09-26T05:03:51.654Z,5.62
2022-09-26T05:04:50.714Z,5.62
2022-09-26T05:05:51.465Z,5.62
2022-09-26T05:06:51.624Z,11.25
2022-09-26T05:07:50.705Z,11.25
2022-09-26T05:08:50.657Z,11.25
2022-09-26T05:09:51.607Z,11.25
2022-09-26T05:10:51.500Z,11.25
2022-09-26T05:11:50.595Z,11.25
2022-09-26T05:12:50.554Z,16.88
2022-09-26T05:13:53.624Z,22.50
2022-09-26T05:14:51.372Z,22.50
2022-09-26T05:15:52.023Z,28.12
2022-09-26T05:16:50.698Z,33.75
2022-09-26T05:17:51.352Z,39.38
2022-09-26T05:18:50.518Z,45.00
2022-09-26T05:19:50.540Z,45.00
2022-09-26T05:20:50.487Z,50.62
2022-09-26T05:21:50.447Z,56.25
2022-09-26T05:22:50.419Z,61.88
2022-09-26T05:23:50.448Z,67.50
2022-09-26T05:24:51.177Z,67.50
2022-09-26T05:25:51.339Z,73.12
2022-09-26T05:26:51.874Z,78.75
2022-09-26T05:27:51.200Z,84.38
2022-09-26T05:28:50.340Z,90.00
2022-09-26T05:29:51.208Z,95.62
2022-09-26T05:30:50.449Z,101.25
2022-09-26T05:31:50.512Z,101.25
2022-09-26T05:32:50.515Z,106.88
2022-09-26T05:33:50.250Z,112.50
2022-09-26T05:34:51.246Z,112.50
2022-09-26T05:35:50.521Z,118.12
2022-09-26T05:36:50.518Z,118.12
2022-09-26T05:37:51.209Z,123.75
2022-09-26T05:38:50.221Z,123.75
2022-09-26T05:39:50.309Z,129.38
2022-09-26T05:40:50.226Z,135.00
2022-09-26T05:41:50.202Z,135.00
2022-09-26T05:42:50.992Z,140.62
2022-09-26T05:43:51.155Z,146.25
2022-09-26T05:44:50.104Z,146.25
2022-09-26T05:45:50.091Z,151.88
2022-09-26T05:46:50.121Z,163.12
2022-09-26T05:47:50.130Z,168.75
2022-09-26T05:48:50.922Z,168.75
2022-09-26T05:49:50.043Z,163.12
2022-09-26T05:50:50.983Z,151.88
2022-09-26T05:51:50.053Z,146.25
2022-09-26T05:52:50.071Z,140.62
2022-09-26T05:53:50.028Z,146.25
2022-09-26T05:54:50.854Z,140.62
2022-09-26T05:55:49.985Z,140.62
2022-09-26T05:56:49.935Z,140.62
2022-09-26T05:57:50.825Z,135.00
2022-09-26T05:58:49.939Z,135.00
2022-09-26T05:59:49.904Z,135.00
2022-09-26T06:00:49.956Z,140.62
2022-09-26T06:01:50.727Z,146.25
2022-09-26T06:02:49.846Z,151.88
2022-09-26T06:03:49.878Z,157.50
2022-09-26T06:04:49.947Z,163.12
2022-09-26T06:05:49.926Z,174.38
2022-09-26T06:06:49.787Z,180.00
2022-09-26T06:07:50.627Z,185.62
2022-09-26T06:08:50.535Z,196.88
2022-09-26T06:09:50.699Z,208.12
2022-09-26T06:10:50.601Z,230.62
2022-09-26T06:11:49.742Z,236.25
2022-09-26T06:12:51.152Z,230.62
2022-09-26T06:13:49.749Z,208.12
2022-09-26T06:14:49.689Z,185.62
2022-09-26T06:15:49.730Z,168.75
2022-09-26T06:16:50.622Z,151.88
2022-09-26T06:17:49.668Z,140.62
2022-09-26T06:18:50.633Z,140.62
2022-09-26T06:19:50.509Z,135.00
2022-09-26T06:20:50.408Z,135.00
2022-09-26T06:21:50.693Z,140.62
2022-09-26T06:22:50.473Z,140.62
2022-09-26T06:23:49.559Z,140.62
2022-09-26T06:24:50.533Z,146.25
2022-09-26T06:25:49.531Z,146.25
2022-09-26T06:26:50.354Z,146.25
2022-09-26T06:27:49.569Z,146.25
2022-09-26T06:28:49.490Z,140.62
2022-09-26T06:29:50.311Z,135.00
2022-09-26T06:30:50.470Z,129.38
2022-09-26T06:31:50.452Z,118.12
2022-09-26T06:32:50.886Z,118.12
2022-09-26T06:33:49.437Z,118.12
2022-09-26T06:34:56.499Z,129.38
2022-09-26T06:35:49.393Z,140.62
2022-09-26T06:36:49.923Z,151.88
2022-09-26T06:37:49.893Z,163.12
2022-09-26T06:38:49.375Z,168.75
2022-09-26T06:39:49.345Z,174.38
2022-09-26T06:40:49.379Z,185.62
2022-09-26T06:41:49.323Z,191.25
2022-09-26T06:42:50.086Z,202.50
2022-09-26T06:43:50.245Z,219.38
2022-09-26T06:44:50.156Z,230.62
2022-09-26T06:45:50.062Z,247.50
2022-09-26T06:46:49.270Z,270.00
2022-09-26T06:47:50.125Z,292.50
2022-09-26T06:48:49.506Z,309.38
2022-09-26T06:49:50.186Z,320.62
2022-09-26T06:50:49.186Z,337.50
2022-09-26T06:51:49.177Z,354.38
2022-09-26T06:52:50.156Z,371.25
2022-09-26T06:53:50.059Z,388.12
2022-09-26T06:54:49.957Z,405.00
2022-09-26T06:55:49.882Z,410.62
2022-09-26T06:56:50.025Z,416.25
2022-09-26T06:57:49.927Z,427.50
2022-09-26T06:58:50.091Z,438.75
2022-09-26T06:59:49.998Z,461.25
2022-09-26T07:00:49.132Z,489.38
2022-09-26T07:01:49.178Z,506.25
2022-09-26T07:02:49.008Z,511.88
2022-09-26T07:03:49.858Z,506.25
2022-09-26T07:04:49.775Z,495.00
2022-09-26T07:05:49.909Z,466.88
2022-09-26T07:06:49.843Z,444.38
2022-09-26T07:07:49.739Z,416.25
2022-09-26T07:09:02.299Z,399.38
2022-09-26T07:09:49.907Z,376.88
2022-09-26T07:10:49.480Z,360.00
2022-09-26T07:12:14.256Z,320.62
2022-09-26T07:12:49.878Z,303.75
2022-09-26T07:13:49.711Z,286.88
2022-09-26T07:14:53.424Z,281.25
2022-09-26T07:15:50.813Z,270.00
2022-09-26T07:16:49.637Z,281.25
2022-09-26T07:17:49.810Z,281.25
2022-09-26T07:18:49.703Z,275.62
2022-09-26T07:19:48.772Z,258.75
2022-09-26T07:20:51.222Z,236.25
2022-09-26T07:21:51.224Z,213.75
2022-09-26T07:22:49.572Z,202.50
2022-09-26T07:23:49.733Z,191.25
2022-09-26T07:24:49.639Z,180.00
2022-09-26T07:25:49.544Z,163.12
2022-09-26T07:26:49.444Z,157.50
2022-09-26T07:27:50.124Z,151.88
2022-09-26T07:28:53.710Z,168.75
2022-09-26T07:29:50.442Z,191.25
2022-09-26T07:30:49.574Z,213.75
2022-09-26T07:31:48.685Z,230.62
2022-09-26T07:32:49.385Z,247.50
2022-09-26T07:33:49.546Z,258.75
2022-09-26T07:34:49.447Z,258.75
2022-09-26T07:35:49.349Z,258.75
2022-09-26T07:36:49.507Z,258.75
2022-09-26T07:37:48.658Z,264.38
2022-09-26T07:38:49.319Z,286.88
2022-09-26T07:39:53.611Z,303.75
2022-09-26T07:40:50.454Z,309.38
2022-09-26T07:41:49.287Z,309.38
2022-09-26T07:43:09.388Z,303.75
2022-09-26T07:45:50.186Z,292.50
2022-09-26T07:46:49.386Z,275.62
2022-09-26T07:47:49.219Z,253.12
2022-09-26T07:48:49.830Z,225.00
2022-09-26T07:49:49.288Z,208.12
2022-09-26T07:50:49.191Z,208.12
2022-09-26T07:51:49.119Z,208.12
2022-09-26T07:52:49.257Z,225.00
2022-09-26T07:53:49.161Z,247.50
2022-09-26T07:54:49.072Z,281.25
2022-09-26T07:55:49.221Z,320.62
2022-09-26T07:56:48.275Z,365.62
2022-09-26T07:57:49.031Z,427.50
2022-09-26T07:58:48.241Z,478.12
2022-09-26T07:59:49.091Z,534.38
2022-09-26T08:00:49.000Z,568.12
2022-09-26T08:01:49.241Z,585.00
2022-09-26T08:02:48.228Z,601.88
2022-09-26T08:03:48.970Z,624.38
2022-09-26T08:04:49.123Z,646.88
2022-09-26T08:05:49.038Z,669.38
2022-09-26T08:06:48.937Z,691.88
2022-09-26T08:07:48.123Z,714.38
2022-09-26T08:08:49.002Z,731.25
2022-09-26T08:09:49.527Z,748.12
2022-09-26T08:10:49.067Z,776.25
2022-09-26T08:11:48.081Z,815.62
2022-09-26T08:12:48.865Z,855.00
2022-09-26T08:13:48.035Z,900.00
2022-09-26T08:14:48.936Z,945.00
2022-09-26T08:15:48.905Z,967.50
2022-09-26T08:16:49.128Z,984.38
2022-09-26T08:17:47.974Z,1006.88
2022-09-26T08:18:47.979Z,1035.00
2022-09-26T08:19:49.406Z,1035.00
2022-09-26T08:20:48.869Z,1018.12
2022-09-26T08:21:47.907Z,973.12
2022-09-26T08:22:48.677Z,933.75
2022-09-26T08:23:48.838Z,877.50
2022-09-26T08:24:48.230Z,849.38
2022-09-26T08:25:47.869Z,832.50
2022-09-26T08:26:48.809Z,821.25
2022-09-26T08:27:48.711Z,821.25
2022-09-26T08:28:48.610Z,838.12
2022-09-26T08:29:48.771Z,866.25
2022-09-26T08:30:47.781Z,883.12
2022-09-26T08:31:48.670Z,905.62
2022-09-26T08:32:47.750Z,945.00
2022-09-26T08:33:48.647Z,950.62
2022-09-26T08:34:48.551Z,961.88
2022-09-26T08:35:47.703Z,990.00
2022-09-26T08:36:47.902Z,1006.88
2022-09-26T08:37:48.537Z,1023.75
2022-09-26T08:38:48.680Z,1040.62
2022-09-26T08:39:47.653Z,1040.62
2022-09-26T08:40:48.527Z,1023.75
2022-09-26T08:41:47.624Z,1006.88
2022-09-26T08:42:48.558Z,1001.25
2022-09-26T08:43:48.459Z,984.38
2022-09-26T08:44:47.608Z,956.25
2022-09-26T08:45:48.121Z,933.75
2022-09-26T08:46:48.463Z,916.88
2022-09-26T08:47:47.577Z,900.00
2022-09-26T08:48:47.567Z,888.75
2022-09-26T08:49:48.397Z,888.75
2022-09-26T08:50:47.557Z,883.12
2022-09-26T08:51:48.467Z,866.25
2022-09-26T08:52:47.473Z,894.38
2022-09-26T08:53:48.260Z,900.00
2022-09-26T08:54:47.509Z,888.75
2022-09-26T08:55:48.347Z,883.12
2022-09-26T08:56:47.461Z,866.25
2022-09-26T08:57:47.469Z,849.38
2022-09-26T08:58:47.428Z,838.12
2022-09-26T08:59:47.429Z,838.12
2022-09-26T09:00:47.530Z,838.12
2022-09-26T09:01:47.619Z,838.12
2022-09-26T09:02:47.496Z,838.12
2022-09-26T09:03:47.320Z,849.38
2022-09-26T09:04:52.967Z,843.75
2022-09-26T09:05:49.162Z,793.12
2022-09-26T09:06:47.512Z,838.12
2022-09-26T09:07:47.433Z,838.12
2022-09-26T09:08:47.345Z,838.12
2022-09-26T09:09:47.355Z,810.00
2022-09-26T09:10:48.172Z,781.88
2022-09-26T09:11:51.094Z,759.38
2022-09-26T09:12:47.205Z,832.50
2022-09-26T09:13:47.264Z,843.75
2022-09-26T09:14:57.922Z,855.00
2022-09-26T09:15:48.318Z,855.00
2022-09-26T09:16:48.104Z,866.25
2022-09-26T09:17:47.262Z,905.62
2022-09-26T09:18:47.159Z,928.12
2022-09-26T09:19:47.215Z,916.88
2022-09-26T09:20:47.086Z,900.00
2022-09-26T09:21:47.118Z,956.25
2022-09-26T09:22:47.149Z,950.62
2022-09-26T09:23:47.056Z,922.50
2022-09-26T09:24:47.058Z,894.38
2022-09-26T09:25:47.043Z,843.75
2022-09-26T09:28:00.122Z,849.38
2022-09-26T09:28:48.746Z,866.25
2022-09-26T09:29:49.148Z,888.75
2022-09-26T09:30:47.027Z,894.38
2022-09-26T09:31:46.959Z,888.75
2022-09-26T09:32:47.083Z,916.88
2022-09-26T09:33:46.961Z,916.88
2022-09-26T09:34:50.248Z,916.88
2022-09-26T09:35:47.880Z,961.88
2022-09-26T09:36:47.235Z,973.12
2022-09-26T09:37:46.892Z,961.88
2022-09-26T09:38:47.781Z,956.25
2022-09-26T09:39:46.953Z,950.62
2022-09-26T09:40:46.840Z,933.75
2022-09-26T09:41:47.019Z,956.25
2022-09-26T09:42:46.855Z,967.50
2022-09-26T09:43:46.792Z,973.12
2022-09-26T09:44:47.279Z,984.38
2022-09-26T09:45:46.754Z,1001.25
2022-09-26T09:46:46.834Z,1063.12
2022-09-26T09:47:46.785Z,1096.88
2022-09-26T09:48:46.970Z,1158.75
2022-09-26T09:49:46.795Z,1203.75
2022-09-26T09:50:46.747Z,1215.00
2022-09-26T09:51:47.563Z,1170.00
2022-09-26T09:52:46.715Z,1119.38
2022-09-26T09:53:47.626Z,1035.00
2022-09-26T09:54:46.627Z,1001.25
2022-09-26T09:55:46.637Z,1080.00
2022-09-26T09:56:47.663Z,1085.62
2022-09-26T09:57:47.532Z,978.75
2022-09-26T09:58:46.578Z,866.25
2022-09-26T09:59:46.588Z,821.25
2022-09-26T10:00:51.236Z,900.00
2022-09-26T10:01:46.621Z,933.75
2022-09-26T10:02:47.396Z,961.88
2022-09-26T10:03:46.540Z,1068.75
2022-09-26T10:04:46.540Z,1051.88
2022-09-26T10:05:46.459Z,1018.12
2022-09-26T10:06:47.366Z,990.00
2022-09-26T10:07:47.314Z,978.75
2022-09-26T10:08:47.212Z,1113.75
2022-09-26T10:09:47.368Z,1192.50
2022-09-26T10:10:47.275Z,1198.12
2022-09-26T10:11:50.384Z,1209.38
2022-09-26T10:12:47.424Z,1203.75
2022-09-26T10:13:46.477Z,1192.50
2022-09-26T10:14:46.356Z,1119.38
2022-09-26T10:15:47.008Z,922.50
2022-09-26T10:16:47.206Z,804.38
2022-09-26T10:18:06.609Z,832.50
2022-09-26T10:18:47.307Z,1057.50
2022-09-26T10:19:46.968Z,1215.00
2022-09-26T10:20:46.621Z,1080.00
2022-09-26T10:21:46.222Z,939.38
2022-09-26T10:22:46.278Z,855.00
2022-09-26T10:23:47.056Z,663.75
2022-09-26T10:24:46.950Z,511.88
2022-09-26T10:25:47.113Z,393.75
2022-09-26T10:26:46.307Z,326.25
2022-09-26T10:27:46.920Z,331.88
2022-09-26T10:28:46.163Z,393.75
2022-09-26T10:29:46.188Z,500.62
2022-09-26T10:30:46.982Z,500.62
2022-09-26T10:31:46.807Z,343.12
2022-09-26T10:32:46.116Z,258.75
2022-09-26T10:33:46.093Z,236.25
2022-09-26T10:34:46.894Z,253.12
2022-09-26T10:35:46.109Z,275.62
2022-09-26T10:36:46.373Z,388.12
2022-09-26T10:37:46.073Z,489.38
2022-09-26T10:38:45.994Z,523.12
2022-09-26T10:39:46.025Z,528.75
2022-09-26T10:40:47.030Z,556.88
2022-09-26T10:41:46.024Z,601.88
2022-09-26T10:42:45.964Z,635.62
2022-09-26T10:43:45.956Z,669.38
2022-09-26T10:44:45.935Z,708.75
2022-09-26T10:45:46.746Z,753.75
2022-09-26T10:46:45.954Z,781.88
2022-09-26T10:47:45.980Z,815.62
2022-09-26T10:48:45.907Z,866.25
2022-09-26T10:49:45.868Z,877.50
2022-09-26T10:50:46.352Z,849.38
2022-09-26T10:51:46.649Z,815.62
2022-09-26T10:52:46.638Z,832.50
2022-09-26T10:53:45.818Z,871.88
2022-09-26T10:54:45.846Z,883.12
2022-09-26T10:55:46.540Z,860.62
2022-09-26T10:56:45.821Z,810.00
2022-09-26T10:57:45.869Z,759.38
2022-09-26T10:58:45.770Z,776.25
2022-09-26T10:59:45.843Z,815.62
2022-09-26T11:00:46.003Z,860.62
2022-09-26T11:01:45.943Z,911.25
2022-09-26T11:02:45.701Z,1001.25
2022-09-26T11:03:46.607Z,1130.62
2022-09-26T11:04:45.698Z,1209.38
2022-09-26T11:05:47.173Z,1243.12
2022-09-26T11:06:45.720Z,1271.25
2022-09-26T11:07:45.595Z,1271.25
2022-09-26T11:08:45.585Z,1271.25
2022-09-26T11:09:45.635Z,1260.00
2022-09-26T11:10:47.006Z,1260.00
2022-09-26T11:11:45.604Z,1288.12
2022-09-26T11:12:45.686Z,1378.12
2022-09-26T11:13:46.343Z,1513.12
2022-09-26T11:14:45.595Z,1620.00
2022-09-26T11:15:46.480Z,1732.50
2022-09-26T11:16:45.511Z,1755.00
2022-09-26T11:17:45.508Z,1811.25
2022-09-26T11:18:45.538Z,1620.00
2022-09-26T11:19:48.123Z,1648.12
2022-09-26T11:20:46.233Z,1591.88
2022-09-26T11:21:45.446Z,1434.38
2022-09-26T11:22:45.448Z,1333.12
2022-09-26T11:23:45.429Z,1254.38
2022-09-26T11:24:45.399Z,1080.00
2022-09-26T11:25:45.367Z,1023.75
2022-09-26T11:26:45.374Z,1203.75
2022-09-26T11:27:46.280Z,950.62
2022-09-26T11:28:46.182Z,810.00
2022-09-26T11:29:45.522Z,759.38
2022-09-26T11:30:46.341Z,781.88
2022-09-26T11:31:45.427Z,905.62
2022-09-26T11:32:46.058Z,978.75
2022-09-26T11:33:46.215Z,1170.00
2022-09-26T11:34:45.271Z,1355.62
2022-09-26T11:35:45.259Z,1451.25
2022-09-26T11:36:46.210Z,1192.50
2022-09-26T11:37:46.087Z,1006.88
2022-09-26T11:38:45.996Z,871.88
2022-09-26T11:39:45.167Z,765.00
2022-09-26T11:40:45.208Z,697.50
2022-09-26T11:41:45.140Z,658.12
2022-09-26T11:42:45.349Z,697.50
2022-09-26T11:43:45.104Z,663.75
2022-09-26T11:44:45.934Z,556.88
2022-09-26T11:45:47.638Z,461.25
2022-09-26T11:46:45.653Z,393.75
2022-09-26T11:47:45.028Z,365.62
2022-09-26T11:48:46.531Z,410.62
2022-09-26T11:49:45.014Z,433.12
2022-09-26T11:50:45.862Z,382.50
2022-09-26T11:51:45.062Z,343.12
2022-09-26T11:52:49.048Z,315.00
2022-09-26T11:53:45.834Z,270.00
2022-09-26T11:54:45.279Z,253.12
2022-09-26T11:55:45.017Z,230.62
2022-09-26T11:56:45.796Z,174.38
2022-09-26T11:57:44.937Z,163.12
2022-09-26T11:58:45.073Z,196.88
2022-09-26T11:59:45.115Z,264.38
2022-09-26T12:00:45.676Z,315.00
2022-09-26T12:01:45.835Z,399.38
2022-09-26T12:02:45.821Z,517.50
2022-09-26T12:03:44.978Z,556.88
2022-09-26T12:04:44.837Z,556.88
2022-09-26T12:05:45.268Z,601.88
2022-09-26T12:06:45.089Z,618.75
2022-09-26T12:07:44.840Z,613.12
2022-09-26T12:08:44.759Z,573.75
2022-09-26T12:09:44.850Z,534.38
2022-09-26T12:10:45.523Z,534.38
2022-09-26T12:11:45.657Z,500.62
2022-09-26T12:12:44.718Z,410.62
2022-09-26T12:13:44.682Z,343.12
2022-09-26T12:14:44.678Z,421.88
2022-09-26T12:15:44.707Z,562.50
2022-09-26T12:16:44.750Z,669.38
2022-09-26T12:17:44.701Z,708.75
2022-09-26T12:18:44.811Z,708.75
2022-09-26T12:19:44.698Z,708.75
2022-09-26T12:20:44.632Z,725.62
2022-09-26T12:21:44.642Z,765.00
2022-09-26T12:22:44.713Z,781.88
2022-09-26T12:23:44.665Z,793.12
2022-09-26T12:24:44.561Z,804.38
2022-09-26T12:25:44.595Z,815.62
2022-09-26T12:26:45.484Z,832.50
2022-09-26T12:27:45.396Z,849.38
2022-09-26T12:28:45.287Z,866.25
2022-09-26T12:29:44.496Z,843.75
2022-09-26T12:30:45.423Z,804.38
2022-09-26T12:31:44.505Z,781.88
2022-09-26T12:32:44.467Z,765.00
2022-09-26T12:33:44.567Z,742.50
2022-09-26T12:34:44.416Z,725.62
2022-09-26T12:35:44.406Z,703.12
2022-09-26T12:36:45.298Z,691.88
2022-09-26T12:37:44.499Z,675.00
2022-09-26T12:38:45.096Z,613.12
2022-09-26T12:39:45.260Z,607.50
2022-09-26T12:40:44.458Z,652.50
2022-09-26T12:41:44.281Z,641.25
2022-09-26T12:42:44.306Z,618.75
2022-09-26T12:43:44.405Z,613.12
2022-09-26T12:44:44.404Z,646.88
2022-09-26T12:45:44.303Z,731.25
2022-09-26T12:46:44.402Z,855.00
2022-09-26T12:47:44.393Z,939.38
2022-09-26T12:48:44.269Z,945.00
2022-09-26T12:49:45.142Z,855.00